sensor_id;sensor_type;location;lat;lon;timestamp;pressure;altitude;pressure_sealevel;temperature;humidity
56272;BME280;42177;48.914;18.160;2023-11-18T00:00:55;986.5;;;6.5;85.1
56272;BME280;42177;48.914;18.160;2023-11-18T00:05:55;986.5;;;6.3;85.7
56272;BME280;42177;48.914;18.160;2023-11-18T00:10:55;986.5;;;6.3;85.7
56272;BME280;42177;48.914;18.160;2023-11-18T00:15:55;986.6;;;6.1;86.6
56272;BME280;42177;48.914;18.160;2023-11-18T00:20:55;986.6;;;6.1;86.6
56272;BME280;42177;48.914;18.160;2023-11-18T00:25:55;986.7;;;6.1;87.7
56272;BME280;42177;48.914;18.160;2023-11-18T00:30:55;986.7;;;6.1;87.7
56272;BME280;42177;48.914;18.160;2023-11-18T00:35:55;986.9;;;6.1;88
56272;BME280;42177;48.914;18.160;2023-11-18T00:40:55;986.9;;;6.1;88
56272;BME280;42177;48.914;18.160;2023-11-18T00:45:55;986.9;;;6.2;88
56272;BME280;42177;48.914;18.160;2023-11-18T00:50:55;986.9;;;6.2;88
56272;BME280;42177;48.914;18.160;2023-11-18T00:55:55;987.1;;;6.3;87.2
56272;BME280;42177;48.914;18.160;2023-11-18T01:00:55;987.1;;;6.3;87.2
56272;BME280;42177;48.914;18.160;2023-11-18T01:05:55;987.1;;;6.3;87.3
56272;BME280;42177;48.914;18.160;2023-11-18T01:10:55;987.1;;;6.3;87.3
56272;BME280;42177;48.914;18.160;2023-11-18T01:15:55;987;;;6.1;87.6
56272;BME280;42177;48.914;18.160;2023-11-18T01:20:55;987;;;6.1;87.6
56272;BME280;42177;48.914;18.160;2023-11-18T01:25:55;987;;;6.2;87.3
56272;BME280;42177;48.914;18.160;2023-11-18T01:30:55;987;;;6.2;87.3
56272;BME280;42177;48.914;18.160;2023-11-18T01:35:55;987;;;6.2;88.1
56272;BME280;42177;48.914;18.160;2023-11-18T01:40:55;987;;;6.2;88.1
56272;BME280;42177;48.914;18.160;2023-11-18T01:45:55;986.9;;;6.3;87
56272;BME280;42177;48.914;18.160;2023-11-18T01:50:55;986.9;;;6.3;87
56272;BME280;42177;48.914;18.160;2023-11-18T01:55:55;987;;;6.2;88
56272;BME280;42177;48.914;18.160;2023-11-18T02:00:55;987;;;6.2;88
56272;BME280;42177;48.914;18.160;2023-11-18T02:05:55;987.1;;;6.3;88
56272;BME280;42177;48.914;18.160;2023-11-18T02:10:57;987.1;;;6.3;88
56272;BME280;42177;48.914;18.160;2023-11-18T02:15:55;987;;;6.3;88.3
56272;BME280;42177;48.914;18.160;2023-11-18T02:20:55;987;;;6.3;88.3
56272;BME280;42177;48.914;18.160;2023-11-18T02:25:55;987;;;6.4;88.2
56272;BME280;42177;48.914;18.160;2023-11-18T02:30:58;987;;;6.4;88.2
56272;BME280;42177;48.914;18.160;2023-11-18T02:35:59;987.1;;;6.4;88.2
56272;BME280;42177;48.914;18.160;2023-11-18T02:40:55;987.1;;;6.4;88.2
56272;BME280;42177;48.914;18.160;2023-11-18T02:45:55;987.2;;;6.1;90.2
56272;BME280;42177;48.914;18.160;2023-11-18T02:50:55;987.2;;;6.1;90.2
56272;BME280;42177;48.914;18.160;2023-11-18T02:55:55;987.3;;;6.4;89.5
56272;BME280;42177;48.914;18.160;2023-11-18T03:00:55;987.3;;;6.4;89.5
56272;BME280;42177;48.914;18.160;2023-11-18T03:05:55;987.3;;;6.4;89.2
56272;BME280;42177;48.914;18.160;2023-11-18T03:10:55;987.3;;;6.4;89.2
56272;BME280;42177;48.914;18.160;2023-11-18T03:15:55;987.3;;;6.5;89.4
56272;BME280;42177;48.914;18.160;2023-11-18T03:20:55;987.3;;;6.5;89.4
56272;BME280;42177;48.914;18.160;2023-11-18T03:25:55;987.3;;;6.5;90
56272;BME280;42177;48.914;18.160;2023-11-18T03:30:55;987.3;;;6.5;90
56272;BME280;42177;48.914;18.160;2023-11-18T03:35:55;987.4;;;6.3;93.3
56272;BME280;42177;48.914;18.160;2023-11-18T03:40:55;987.4;;;6.3;93.3
56272;BME280;42177;48.914;18.160;2023-11-18T03:45:55;987.5;;;6.3;97
56272;BME280;42177;48.914;18.160;2023-11-18T03:50:55;987.5;;;6.3;97
56272;BME280;42177;48.914;18.160;2023-11-18T03:55:55;987.5;;;6.1;98.5
56272;BME280;42177;48.914;18.160;2023-11-18T04:00:55;987.5;;;6.1;98.5
56272;BME280;42177;48.914;18.160;2023-11-18T04:05:55;987.5;;;6;99.9
56272;BME280;42177;48.914;18.160;2023-11-18T04:10:55;987.5;;;6;99.9
56272;BME280;42177;48.914;18.160;2023-11-18T04:15:55;987.6;;;6.3;99
56272;BME280;42177;48.914;18.160;2023-11-18T04:20:55;987.6;;;6.3;99
56272;BME280;42177;48.914;18.160;2023-11-18T04:25:55;987.7;;;6.4;97.2
56272;BME280;42177;48.914;18.160;2023-11-18T04:30:55;987.7;;;6.4;97.2
56272;BME280;42177;48.914;18.160;2023-11-18T04:35:55;987.7;;;6.2;95.1
56272;BME280;42177;48.914;18.160;2023-11-18T04:40:55;987.7;;;6.2;95.1
56272;BME280;42177;48.914;18.160;2023-11-18T04:45:55;987.7;;;6.3;92.5
56272;BME280;42177;48.914;18.160;2023-11-18T04:50:55;987.7;;;6.3;92.5
56272;BME280;42177;48.914;18.160;2023-11-18T04:55:55;987.7;;;6.3;92.3
56272;BME280;42177;48.914;18.160;2023-11-18T05:00:55;987.7;;;6.3;92.3
56272;BME280;42177;48.914;18.160;2023-11-18T05:05:55;987.8;;;6.3;90.8
56272;BME280;42177;48.914;18.160;2023-11-18T05:10:55;987.8;;;6.3;90.8
56272;BME280;42177;48.914;18.160;2023-11-18T05:15:55;987.7;;;6.3;89.7
56272;BME280;42177;48.914;18.160;2023-11-18T05:20:55;987.7;;;6.3;89.7
56272;BME280;42177;48.914;18.160;2023-11-18T05:25:55;987.9;;;6.1;89.9
56272;BME280;42177;48.914;18.160;2023-11-18T05:30:55;987.9;;;6.1;89.9
56272;BME280;42177;48.914;18.160;2023-11-18T05:35:55;987.8;;;6.1;89.6
56272;BME280;42177;48.914;18.160;2023-11-18T05:40:55;987.8;;;6.1;89.6
56272;BME280;42177;48.914;18.160;2023-11-18T05:45:55;988;;;6.3;88.6
56272;BME280;42177;48.914;18.160;2023-11-18T05:50:55;988;;;6.3;88.6
56272;BME280;42177;48.914;18.160;2023-11-18T05:55:55;988;;;6.4;87.9
56272;BME280;42177;48.914;18.160;2023-11-18T06:00:55;988;;;6.4;87.9
56272;BME280;42177;48.914;18.160;2023-11-18T06:05:55;988;;;6.4;87.7
56272;BME280;42177;48.914;18.160;2023-11-18T06:10:55;988;;;6.4;87.7
56272;BME280;42177;48.914;18.160;2023-11-18T06:15:55;988.3;;;6.2;88.3
56272;BME280;42177;48.914;18.160;2023-11-18T06:20:55;988.3;;;6.2;88.3
56272;BME280;42177;48.914;18.160;2023-11-18T06:25:55;988.4;;;6.1;89.3
56272;BME280;42177;48.914;18.160;2023-11-18T06:30:55;988.4;;;6.1;89.3
56272;BME280;42177;48.914;18.160;2023-11-18T06:35:55;988.5;;;6.2;89.2
56272;BME280;42177;48.914;18.160;2023-11-18T06:40:55;988.5;;;6.2;89.2
56272;BME280;42177;48.914;18.160;2023-11-18T06:45:55;988.5;;;6.1;89.6
56272;BME280;42177;48.914;18.160;2023-11-18T06:50:55;988.5;;;6.1;89.6
56272;BME280;42177;48.914;18.160;2023-11-18T06:55:55;988.7;;;6.1;89.1
56272;BME280;42177;48.914;18.160;2023-11-18T07:00:55;988.7;;;6.1;89.1
56272;BME280;42177;48.914;18.160;2023-11-18T07:05:55;988.7;;;6.4;89.1
56272;BME280;42177;48.914;18.160;2023-11-18T07:10:55;988.7;;;6.4;89.1
56272;BME280;42177;48.914;18.160;2023-11-18T07:15:55;988.8;;;6.4;89
56272;BME280;42177;48.914;18.160;2023-11-18T07:20:55;988.8;;;6.4;89
56272;BME280;42177;48.914;18.160;2023-11-18T07:25:55;988.9;;;6.3;89.3
56272;BME280;42177;48.914;18.160;2023-11-18T07:30:55;988.9;;;6.3;89.3
56272;BME280;42177;48.914;18.160;2023-11-18T07:35:55;988.9;;;6.4;89.1
56272;BME280;42177;48.914;18.160;2023-11-18T07:40:55;988.9;;;6.4;89.1
56272;BME280;42177;48.914;18.160;2023-11-18T07:45:55;988.9;;;6.5;87.9
56272;BME280;42177;48.914;18.160;2023-11-18T07:50:55;988.9;;;6.5;87.9
56272;BME280;42177;48.914;18.160;2023-11-18T07:55:55;989;;;6.8;85.5
56272;BME280;42177;48.914;18.160;2023-11-18T08:00:55;989;;;6.8;85.5
56272;BME280;42177;48.914;18.160;2023-11-18T08:05:55;989.1;;;6.6;86.6
56272;BME280;42177;48.914;18.160;2023-11-18T08:10:55;989.1;;;6.6;86.6
56272;BME280;42177;48.914;18.160;2023-11-18T08:15:55;989.1;;;6.6;87.1
56272;BME280;42177;48.914;18.160;2023-11-18T08:20:55;989.1;;;6.6;87.1
56272;BME280;42177;48.914;18.160;2023-11-18T08:25:55;989.2;;;6.6;85.7
56272;BME280;42177;48.914;18.160;2023-11-18T08:30:55;989.2;;;6.6;85.7
56272;BME280;42177;48.914;18.160;2023-11-18T08:35:55;989.1;;;6.7;85.2
56272;BME280;42177;48.914;18.160;2023-11-18T08:40:55;989.1;;;6.7;85.2
56272;BME280;42177;48.914;18.160;2023-11-18T08:45:55;989.3;;;6.5;87.5
56272;BME280;42177;48.914;18.160;2023-11-18T08:50:55;989.3;;;6.5;87.5
56272;BME280;42177;48.914;18.160;2023-11-18T08:55:55;989.6;;;6.3;91.9
56272;BME280;42177;48.914;18.160;2023-11-18T09:00:56;989.6;;;6.3;91.9
56272;BME280;42177;48.914;18.160;2023-11-18T09:05:56;989.6;;;6.1;96.1
56272;BME280;42177;48.914;18.160;2023-11-18T09:10:55;989.6;;;6.1;96.1
56272;BME280;42177;48.914;18.160;2023-11-18T09:15:56;989.8;;;6.2;97.8
56272;BME280;42177;48.914;18.160;2023-11-18T09:20:55;989.8;;;6.2;97.8
56272;BME280;42177;48.914;18.160;2023-11-18T09:25:55;989.8;;;6.2;96.6
56272;BME280;42177;48.914;18.160;2023-11-18T09:30:55;989.8;;;6.2;96.6
56272;BME280;42177;48.914;18.160;2023-11-18T09:35:55;989.8;;;6.4;96.5
56272;BME280;42177;48.914;18.160;2023-11-18T09:40:55;989.8;;;6.4;96.5
56272;BME280;42177;48.914;18.160;2023-11-18T09:45:56;989.8;;;6.6;95.3
56272;BME280;42177;48.914;18.160;2023-11-18T09:50:55;989.8;;;6.6;95.3
56272;BME280;42177;48.914;18.160;2023-11-18T09:55:56;989.9;;;6.5;96.3
56272;BME280;42177;48.914;18.160;2023-11-18T10:00:56;989.9;;;6.5;96.3
56272;BME280;42177;48.914;18.160;2023-11-18T10:05:55;990;;;6.5;95.8
56272;BME280;42177;48.914;18.160;2023-11-18T10:10:55;990;;;6.5;95.8
56272;BME280;42177;48.914;18.160;2023-11-18T10:15:55;990.1;;;6.1;96.3
56272;BME280;42177;48.914;18.160;2023-11-18T10:20:55;990.1;;;6.1;96.3
56272;BME280;42177;48.914;18.160;2023-11-18T10:25:55;990.1;;;6.2;98.7
56272;BME280;42177;48.914;18.160;2023-11-18T10:30:55;990.1;;;6.2;98.7
56272;BME280;42177;48.914;18.160;2023-11-18T10:35:55;990.2;;;6.3;97.6
56272;BME280;42177;48.914;18.160;2023-11-18T10:40:55;990.2;;;6.3;97.6
56272;BME280;42177;48.914;18.160;2023-11-18T10:46:04;990.2;;;6.7;96.8
56272;BME280;42177;48.914;18.160;2023-11-18T10:50:55;990.2;;;6.7;96.8
56272;BME280;42177;48.914;18.160;2023-11-18T10:55:55;990.5;;;5.8;100
56272;BME280;42177;48.914;18.160;2023-11-18T11:00:55;990.5;;;5.8;100
56272;BME280;42177;48.914;18.160;2023-11-18T11:05:55;990.6;;;5.9;100
56272;BME280;42177;48.914;18.160;2023-11-18T11:10:55;990.6;;;5.9;100
56272;BME280;42177;48.914;18.160;2023-11-18T11:15:55;990.6;;;6;99.7
56272;BME280;42177;48.914;18.160;2023-11-18T11:20:57;990.6;;;6;99.7
56272;BME280;42177;48.914;18.160;2023-11-18T11:25:58;990.6;;;6.2;97.8
56272;BME280;42177;48.914;18.160;2023-11-18T11:31:00;990.6;;;6.2;97.8
56272;BME280;42177;48.914;18.160;2023-11-18T11:35:55;990.5;;;7.4;93.1
56272;BME280;42177;48.914;18.160;2023-11-18T11:40:55;990.5;;;7.4;93.1
56272;BME280;42177;48.914;18.160;2023-11-18T11:45:55;990.7;;;7.3;89.7
56272;BME280;42177;48.914;18.160;2023-11-18T11:51:00;990.7;;;7.3;89.7
56272;BME280;42177;48.914;18.160;2023-11-18T11:55:55;990.7;;;7.2;88.3
56272;BME280;42177;48.914;18.160;2023-11-18T12:00:55;990.7;;;7.2;88.3
56272;BME280;42177;48.914;18.160;2023-11-18T12:05:55;990.9;;;6.7;88.4
56272;BME280;42177;48.914;18.160;2023-11-18T12:10:55;990.9;;;6.7;88.4
56272;BME280;42177;48.914;18.160;2023-11-18T12:15:55;990.9;;;7.1;85.6
56272;BME280;42177;48.914;18.160;2023-11-18T12:20:55;990.9;;;7.1;85.6
56272;BME280;42177;48.914;18.160;2023-11-18T12:25:55;991.1;;;7.1;83
56272;BME280;42177;48.914;18.160;2023-11-18T12:30:55;991.1;;;7.1;83
56272;BME280;42177;48.914;18.160;2023-11-18T12:40:55;991.1;;;6.8;81.7
56272;BME280;42177;48.914;18.160;2023-11-18T12:46:17;991.2;;;6.7;81
56272;BME280;42177;48.914;18.160;2023-11-18T12:50:55;991.2;;;6.7;81
56272;BME280;42177;48.914;18.160;2023-11-18T12:55:55;991;;;6.6;79.8
56272;BME280;42177;48.914;18.160;2023-11-18T13:00:55;991;;;6.6;79.8
56272;BME280;42177;48.914;18.160;2023-11-18T13:05:55;991.1;;;6.7;79.5
56272;BME280;42177;48.914;18.160;2023-11-18T13:10:55;991.1;;;6.7;79.5
56272;BME280;42177;48.914;18.160;2023-11-18T13:15:55;991.2;;;6.8;80.7
56272;BME280;42177;48.914;18.160;2023-11-18T13:20:55;991.2;;;6.8;80.7
56272;BME280;42177;48.914;18.160;2023-11-18T13:25:55;991.4;;;6.6;82.9
56272;BME280;42177;48.914;18.160;2023-11-18T13:30:55;991.4;;;6.6;82.9
56272;BME280;42177;48.914;18.160;2023-11-18T13:35:55;991.5;;;6.7;83.3
56272;BME280;42177;48.914;18.160;2023-11-18T13:40:55;991.5;;;6.7;83.3
56272;BME280;42177;48.914;18.160;2023-11-18T13:45:55;991.6;;;6.7;84.1
56272;BME280;42177;48.914;18.160;2023-11-18T13:50:55;991.6;;;6.7;84.1
56272;BME280;42177;48.914;18.160;2023-11-18T13:55:55;991.8;;;6.7;84.9
56272;BME280;42177;48.914;18.160;2023-11-18T14:00:55;991.8;;;6.7;84.9
56272;BME280;42177;48.914;18.160;2023-11-18T14:05:57;991.5;;;6.6;85.3
56272;BME280;42177;48.914;18.160;2023-11-18T14:10:55;991.5;;;6.6;85.3
56272;BME280;42177;48.914;18.160;2023-11-18T14:15:55;991.7;;;6.9;84.2
56272;BME280;42177;48.914;18.160;2023-11-18T14:20:55;991.7;;;6.9;84.2
56272;BME280;42177;48.914;18.160;2023-11-18T14:25:55;991.8;;;6.9;84.3
56272;BME280;42177;48.914;18.160;2023-11-18T14:30:55;991.8;;;6.9;84.3
56272;BME280;42177;48.914;18.160;2023-11-18T14:35:55;991.8;;;6.6;85.9
56272;BME280;42177;48.914;18.160;2023-11-18T14:40:55;991.8;;;6.6;85.9
56272;BME280;42177;48.914;18.160;2023-11-18T14:45:55;991.8;;;6.3;88.4
56272;BME280;42177;48.914;18.160;2023-11-18T14:50:55;991.8;;;6.3;88.4
56272;BME280;42177;48.914;18.160;2023-11-18T14:55:55;991.7;;;6.2;89.3
56272;BME280;42177;48.914;18.160;2023-11-18T15:00:55;991.7;;;6.2;89.3
56272;BME280;42177;48.914;18.160;2023-11-18T15:05:55;991.7;;;6.3;89.2
56272;BME280;42177;48.914;18.160;2023-11-18T15:10:55;991.7;;;6.3;89.2
56272;BME280;42177;48.914;18.160;2023-11-18T15:15:55;991.8;;;6.3;88.8
56272;BME280;42177;48.914;18.160;2023-11-18T15:20:55;991.8;;;6.3;88.8
56272;BME280;42177;48.914;18.160;2023-11-18T15:25:55;991.8;;;6.1;88.2
56272;BME280;42177;48.914;18.160;2023-11-18T15:30:55;991.8;;;6.1;88.2
56272;BME280;42177;48.914;18.160;2023-11-18T15:35:55;991.9;;;6.1;88.4
56272;BME280;42177;48.914;18.160;2023-11-18T15:40:55;991.9;;;6.1;88.4
56272;BME280;42177;48.914;18.160;2023-11-18T15:45:55;992;;;6.2;88
56272;BME280;42177;48.914;18.160;2023-11-18T15:50:55;992;;;6.2;88
56272;BME280;42177;48.914;18.160;2023-11-18T15:55:55;992;;;6.3;87.5
56272;BME280;42177;48.914;18.160;2023-11-18T16:00:55;992;;;6.3;87.5
56272;BME280;42177;48.914;18.160;2023-11-18T16:05:55;992.1;;;6.2;87
56272;BME280;42177;48.914;18.160;2023-11-18T16:10:55;992.1;;;6.2;87
56272;BME280;42177;48.914;18.160;2023-11-18T16:15:55;992.3;;;6.4;86.7
56272;BME280;42177;48.914;18.160;2023-11-18T16:20:55;992.3;;;6.4;86.7
56272;BME280;42177;48.914;18.160;2023-11-18T16:25:55;992.2;;;6.4;87.1
56272;BME280;42177;48.914;18.160;2023-11-18T16:30:55;992.2;;;6.4;87.1
56272;BME280;42177;48.914;18.160;2023-11-18T16:35:55;992.3;;;6.3;88
56272;BME280;42177;48.914;18.160;2023-11-18T16:40:55;992.3;;;6.3;88
56272;BME280;42177;48.914;18.160;2023-11-18T16:45:55;992.4;;;6.3;88.7
56272;BME280;42177;48.914;18.160;2023-11-18T16:50:55;992.4;;;6.3;88.7
56272;BME280;42177;48.914;18.160;2023-11-18T16:55:55;992.5;;;6.1;90.3
56272;BME280;42177;48.914;18.160;2023-11-18T17:00:55;992.5;;;6.1;90.3
56272;BME280;42177;48.914;18.160;2023-11-18T17:05:55;992.5;;;6.2;91.4
56272;BME280;42177;48.914;18.160;2023-11-18T17:10:55;992.5;;;6.2;91.4
56272;BME280;42177;48.914;18.160;2023-11-18T17:15:55;992.6;;;6;91.2
56272;BME280;42177;48.914;18.160;2023-11-18T17:20:55;992.6;;;6;91.2
56272;BME280;42177;48.914;18.160;2023-11-18T17:25:55;992.5;;;5.9;92
56272;BME280;42177;48.914;18.160;2023-11-18T17:30:55;992.5;;;5.9;92
56272;BME280;42177;48.914;18.160;2023-11-18T17:35:55;992.8;;;5.7;92.9
56272;BME280;42177;48.914;18.160;2023-11-18T17:40:55;992.8;;;5.7;92.9
56272;BME280;42177;48.914;18.160;2023-11-18T17:45:55;992.7;;;5.7;90.4
56272;BME280;42177;48.914;18.160;2023-11-18T17:50:55;992.7;;;5.7;90.4
56272;BME280;42177;48.914;18.160;2023-11-18T17:55:55;992.4;;;5.6;87.9
56272;BME280;42177;48.914;18.160;2023-11-18T18:00:55;992.4;;;5.6;87.9
56272;BME280;42177;48.914;18.160;2023-11-18T18:05:55;992.5;;;5.8;86
56272;BME280;42177;48.914;18.160;2023-11-18T18:10:55;992.5;;;5.8;86
56272;BME280;42177;48.914;18.160;2023-11-18T18:15:55;992.3;;;5.6;86.1
56272;BME280;42177;48.914;18.160;2023-11-18T18:20:55;992.3;;;5.6;86.1
56272;BME280;42177;48.914;18.160;2023-11-18T18:25:55;992.1;;;5.5;87.7
56272;BME280;42177;48.914;18.160;2023-11-18T18:30:55;992.1;;;5.5;87.7
56272;BME280;42177;48.914;18.160;2023-11-18T18:35:55;992.1;;;5.4;89.1
56272;BME280;42177;48.914;18.160;2023-11-18T18:40:55;992.1;;;5.4;89.1
56272;BME280;42177;48.914;18.160;2023-11-18T18:45:55;992.2;;;5.5;88.7
56272;BME280;42177;48.914;18.160;2023-11-18T18:50:55;992.2;;;5.5;88.7
56272;BME280;42177;48.914;18.160;2023-11-18T18:55:55;992.5;;;5.3;90.6
56272;BME280;42177;48.914;18.160;2023-11-18T19:00:55;992.5;;;5.3;90.6
56272;BME280;42177;48.914;18.160;2023-11-18T19:05:55;992.3;;;5.3;90.8
56272;BME280;42177;48.914;18.160;2023-11-18T19:10:55;992.3;;;5.3;90.8
56272;BME280;42177;48.914;18.160;2023-11-18T19:15:55;992.4;;;5.2;91.6
56272;BME280;42177;48.914;18.160;2023-11-18T19:20:55;992.4;;;5.2;91.6
56272;BME280;42177;48.914;18.160;2023-11-18T19:25:55;992.3;;;5.1;90.2
56272;BME280;42177;48.914;18.160;2023-11-18T19:30:55;992.3;;;5.1;90.2
56272;BME280;42177;48.914;18.160;2023-11-18T19:35:55;992;;;5.2;88.7
56272;BME280;42177;48.914;18.160;2023-11-18T19:40:55;992;;;5.2;88.7
56272;BME280;42177;48.914;18.160;2023-11-18T19:45:56;992;;;4.9;89.9
56272;BME280;42177;48.914;18.160;2023-11-18T19:50:55;992;;;4.9;89.9
56272;BME280;42177;48.914;18.160;2023-11-18T19:55:55;992.2;;;5;90.4
56272;BME280;42177;48.914;18.160;2023-11-18T20:00:55;992.2;;;5;90.4
56272;BME280;42177;48.914;18.160;2023-11-18T20:05:55;992.4;;;5.1;90.9
56272;BME280;42177;48.914;18.160;2023-11-18T20:10:55;992.4;;;5.1;90.9
56272;BME280;42177;48.914;18.160;2023-11-18T20:15:55;992.4;;;5.1;90.3
56272;BME280;42177;48.914;18.160;2023-11-18T20:20:55;992.4;;;5.1;90.3
56272;BME280;42177;48.914;18.160;2023-11-18T20:25:55;992.4;;;4.8;92.3
56272;BME280;42177;48.914;18.160;2023-11-18T20:30:55;992.4;;;4.8;92.3
56272;BME280;42177;48.914;18.160;2023-11-18T20:35:55;992.1;;;4.5;95.5
56272;BME280;42177;48.914;18.160;2023-11-18T20:40:55;992.1;;;4.5;95.5
56272;BME280;42177;48.914;18.160;2023-11-18T20:45:55;992;;;4.8;93.3
56272;BME280;42177;48.914;18.160;2023-11-18T20:50:55;992;;;4.8;93.3
56272;BME280;42177;48.914;18.160;2023-11-18T20:55:55;992.1;;;4.3;94.8
56272;BME280;42177;48.914;18.160;2023-11-18T21:00:55;992.1;;;4.3;94.8
56272;BME280;42177;48.914;18.160;2023-11-18T21:05:55;992;;;4.4;94.3
56272;BME280;42177;48.914;18.160;2023-11-18T21:10:55;992;;;4.4;94.3
56272;BME280;42177;48.914;18.160;2023-11-18T21:15:55;991.9;;;4.4;92.4
56272;BME280;42177;48.914;18.160;2023-11-18T21:20:55;991.9;;;4.4;92.4
56272;BME280;42177;48.914;18.160;2023-11-18T21:25:55;991.8;;;4.3;92.2
56272;BME280;42177;48.914;18.160;2023-11-18T21:30:55;991.8;;;4.3;92.2
56272;BME280;42177;48.914;18.160;2023-11-18T21:35:55;991.5;;;4.1;93.2
56272;BME280;42177;48.914;18.160;2023-11-18T21:40:55;991.5;;;4.1;93.2
56272;BME280;42177;48.914;18.160;2023-11-18T21:45:55;991.5;;;4.2;93.8
56272;BME280;42177;48.914;18.160;2023-11-18T21:50:55;991.5;;;4.2;93.8
56272;BME280;42177;48.914;18.160;2023-11-18T21:55:55;991.6;;;3.7;94.4
56272;BME280;42177;48.914;18.160;2023-11-18T22:00:55;991.6;;;3.7;94.4
56272;BME280;42177;48.914;18.160;2023-11-18T22:05:55;991.8;;;4;92.9
56272;BME280;42177;48.914;18.160;2023-11-18T22:10:55;991.8;;;4;92.9
56272;BME280;42177;48.914;18.160;2023-11-18T22:15:55;991.7;;;4;93.2
56272;BME280;42177;48.914;18.160;2023-11-18T22:20:55;991.7;;;4;93.2
56272;BME280;42177;48.914;18.160;2023-11-18T22:25:55;991.9;;;4.1;93.5
56272;BME280;42177;48.914;18.160;2023-11-18T22:30:55;991.9;;;4.1;93.5
56272;BME280;42177;48.914;18.160;2023-11-18T22:35:55;991.5;;;4.1;92.6
56272;BME280;42177;48.914;18.160;2023-11-18T22:40:55;991.5;;;4.1;92.6
56272;BME280;42177;48.914;18.160;2023-11-18T22:45:55;991.2;;;3.8;94.5
56272;BME280;42177;48.914;18.160;2023-11-18T22:50:55;991.2;;;3.8;94.5
56272;BME280;42177;48.914;18.160;2023-11-18T22:55:55;991.3;;;4.1;93.3
56272;BME280;42177;48.914;18.160;2023-11-18T23:00:55;991.3;;;4.1;93.3
56272;BME280;42177;48.914;18.160;2023-11-18T23:05:55;991.4;;;3.6;94.1
56272;BME280;42177;48.914;18.160;2023-11-18T23:10:55;991.4;;;3.6;94.1
56272;BME280;42177;48.914;18.160;2023-11-18T23:15:55;991.3;;;3.8;93.7
56272;BME280;42177;48.914;18.160;2023-11-18T23:20:55;991.3;;;3.8;93.7
56272;BME280;42177;48.914;18.160;2023-11-18T23:25:55;991.4;;;3.8;94.1
56272;BME280;42177;48.914;18.160;2023-11-18T23:30:55;991.4;;;3.8;94.1
56272;BME280;42177;48.914;18.160;2023-11-18T23:35:56;991.3;;;3.7;94.3
56272;BME280;42177;48.914;18.160;2023-11-18T23:40:55;991.3;;;3.7;94.3
56272;BME280;42177;48.914;18.160;2023-11-18T23:45:55;991.1;;;3.6;94.3
56272;BME280;42177;48.914;18.160;2023-11-18T23:50:55;991.1;;;3.6;94.3
56272;BME280;42177;48.914;18.160;2023-11-18T23:55:55;991.1;;;3.8;94.4
